Time;durP1;ratioP1;P1;durP2;ratioP2;P2;SDS_P1;SDS_P2;PMS_P1;PMS_P2;Temp;Humidity;BMP_temperature;BMP_pressure;BME280_temperature;BME280_humidity;BME280_pressure;Samples;Min_cycle;Max_cycle;Signal;HPM_P1;HPM_P2
2022/04/03 00:00:10;;;;;;;;;7.00;5.33;;;;;;;;5098445;27;45320;-69
2022/04/03 00:02:36;;;;;;;;;9.00;9.00;;;;;;;;5098309;27;45275;-69
2022/04/03 00:05:01;;;;;;;;;2.00;2.00;;;;;;;;5084112;27;45399;-69
2022/04/03 00:07:27;;;;;;;;;8.67;6.67;;;;;;;;5077461;28;46475;-69
2022/04/03 00:09:52;;;;;;;;;8.00;6.00;;;;;;;;5077980;28;45431;-69
2022/04/03 00:12:17;;;;;;;;;10.33;7.00;;;;;;;;5077343;28;45650;-69
2022/04/03 00:14:43;;;;;;;;;11.33;8.00;;;;;;;;5077711;28;45441;-69
2022/04/03 00:17:08;;;;;;;;;12.33;7.33;;;;;;;;5077505;28;47502;-69
2022/04/03 00:19:33;;;;;;;;;12.33;6.33;;;;;;;;5077728;28;45372;-69
2022/04/03 00:22:00;;;;;;;;;7.00;7.00;;;;;;;;5077927;28;45303;-69
2022/04/03 00:24:25;;;;;;;;;7.33;7.33;;;;;;;;5077106;28;45331;-69
2022/04/03 00:26:50;;;;;;;;;7.00;5.33;;;;;;;;5076480;28;46147;-68
2022/04/03 00:29:15;;;;;;;;;8.00;6.33;;;;;;;;5077577;28;45322;-69
2022/04/03 00:31:41;;;;;;;;;8.67;7.00;;;;;;;;5077399;28;45498;-68
2022/04/03 00:34:06;;;;;;;;;7.00;4.33;;;;;;;;5077749;28;45229;-68
2022/04/03 00:36:31;;;;;;;;;5.33;5.33;;;;;;;;5076300;28;45589;-68
2022/04/03 00:38:56;;;;;;;;;7.00;7.00;;;;;;;;5076893;28;45399;-69
2022/04/03 00:41:22;;;;;;;;;6.00;6.00;;;;;;;;5077448;28;45435;-66
2022/04/03 00:43:47;;;;;;;;;9.33;6.00;;;;;;;;5077325;28;45213;-67
2022/04/03 00:46:15;;;;;;;;;9.33;6.00;;;;;;;;5077386;28;45562;-67
2022/04/03 00:48:40;;;;;;;;;7.33;6.00;;;;;;;;5077123;28;45268;-67
2022/04/03 00:51:05;;;;;;;;;10.00;6.00;;;;;;;;5077298;28;45216;-67
2022/04/03 00:53:31;;;;;;;;;7.67;6.00;;;;;;;;5077043;28;45589;-67
2022/04/03 00:55:56;;;;;;;;;7.00;6.00;;;;;;;;5076724;28;46659;-67
2022/04/03 00:58:22;;;;;;;;;6.00;2.33;;;;;;;;5077177;28;45433;-67
2022/04/03 01:00:47;;;;;;;;;6.67;5.00;;;;;;;;5077185;28;45407;-67
2022/04/03 01:03:12;;;;;;;;;6.00;4.33;;;;;;;;5077239;28;45536;-67
2022/04/03 01:05:38;;;;;;;;;4.33;4.33;;;;;;;;5082662;27;46486;-69
2022/04/03 01:08:04;;;;;;;;;6.00;3.00;;;;;;;;5097189;27;45368;-67
2022/04/03 01:10:29;;;;;;;;;6.33;6.00;;;;;;;;5097554;27;45382;-67
2022/04/03 01:12:54;;;;;;;;;8.33;7.00;;;;;;;;5078232;27;45923;-67
2022/04/03 01:15:19;;;;;;;;;8.67;4.67;;;;;;;;5076755;28;45289;-67
2022/04/03 01:17:45;;;;;;;;;8.00;6.00;;;;;;;;5076987;28;45468;-67
2022/04/03 01:20:11;;;;;;;;;6.33;6.00;;;;;;;;5076787;28;45527;-67
2022/04/03 01:22:36;;;;;;;;;8.00;7.00;;;;;;;;5077185;28;45306;-67
2022/04/03 01:25:02;;;;;;;;;12.00;4.67;;;;;;;;5076768;28;45304;-67
2022/04/03 01:27:27;;;;;;;;;10.67;6.00;;;;;;;;5076168;28;45238;-67
2022/04/03 01:29:52;;;;;;;;;6.33;5.67;;;;;;;;5076888;28;45481;-67
2022/04/03 01:32:21;;;;;;;;;8.00;6.33;;;;;;;;5076982;28;45395;-68
2022/04/03 01:34:46;;;;;;;;;5.33;5.00;;;;;;;;5076522;28;45342;-68
2022/04/03 01:37:12;;;;;;;;;4.00;2.00;;;;;;;;5078041;28;45360;-67
2022/04/03 01:39:37;;;;;;;;;5.67;5.00;;;;;;;;5080210;28;45487;-68
2022/04/03 01:42:03;;;;;;;;;11.33;7.00;;;;;;;;5080445;28;45323;-68
2022/04/03 01:44:28;;;;;;;;;5.33;5.33;;;;;;;;5079625;28;47288;-68
2022/04/03 01:46:53;;;;;;;;;2.67;2.67;;;;;;;;5079676;28;45398;-68
2022/04/03 01:49:18;;;;;;;;;5.00;5.00;;;;;;;;5080194;28;45294;-68
2022/04/03 01:51:44;;;;;;;;;10.00;6.00;;;;;;;;5079896;28;45253;-67
2022/04/03 01:54:09;;;;;;;;;6.00;6.00;;;;;;;;5080037;28;46667;-67
2022/04/03 01:56:34;;;;;;;;;11.67;6.67;;;;;;;;5079494;28;45300;-67
2022/04/03 01:59:03;;;;;;;;;12.00;9.33;;;;;;;;5079784;28;45799;-67
2022/04/03 02:01:32;;;;;;;;;7.00;5.00;;;;;;;;5080189;28;45460;-67
2022/04/03 02:04:01;;;;;;;;;7.00;7.00;;;;;;;;5079558;28;45780;-68
2022/04/03 02:06:27;;;;;;;;;6.33;6.33;;;;;;;;5079746;28;45428;-67
2022/04/03 02:08:53;;;;;;;;;13.33;10.67;;;;;;;;5079662;28;45220;-67
2022/04/03 02:11:18;;;;;;;;;15.33;13.33;;;;;;;;5079314;28;45201;-67
2022/04/03 02:13:44;;;;;;;;;10.00;7.33;;;;;;;;5079204;28;46089;-67
2022/04/03 02:16:09;;;;;;;;;15.00;11.00;;;;;;;;5079566;28;45182;-67
2022/04/03 02:18:35;;;;;;;;;14.67;10.00;;;;;;;;5079671;28;45404;-67
2022/04/03 02:21:00;;;;;;;;;10.00;8.33;;;;;;;;5079528;28;45640;-68
2022/04/03 02:23:25;;;;;;;;;15.33;10.00;;;;;;;;5079121;28;45789;-67
2022/04/03 02:25:52;;;;;;;;;11.00;9.33;;;;;;;;5061072;28;45658;-67
2022/04/03 02:28:17;;;;;;;;;9.00;7.00;;;;;;;;5078812;28;45349;-68
2022/04/03 02:30:42;;;;;;;;;8.67;6.00;;;;;;;;5079515;28;45548;-67
2022/04/03 02:33:08;;;;;;;;;9.67;6.67;;;;;;;;5078964;28;46583;-67
2022/04/03 02:35:34;;;;;;;;;10.00;6.00;;;;;;;;5078679;28;45387;-69
2022/04/03 02:37:59;;;;;;;;;7.00;6.33;;;;;;;;5079143;28;45581;-67
2022/04/03 02:40:24;;;;;;;;;6.67;6.33;;;;;;;;5079372;28;45395;-67
2022/04/03 02:42:52;;;;;;;;;10.00;5.00;;;;;;;;5078843;28;45803;-67
2022/04/03 02:45:17;;;;;;;;;6.00;6.00;;;;;;;;5079063;28;45327;-67
2022/04/03 02:47:52;;;;;;;;;5.00;5.00;;;;;;;;5078367;28;45427;-67
2022/04/03 02:50:19;;;;;;;;;11.00;10.33;;;;;;;;5079092;28;45216;-67
2022/04/03 02:52:45;;;;;;;;;9.33;9.33;;;;;;;;5078618;28;45247;-67
2022/04/03 02:55:11;;;;;;;;;2.00;2.00;;;;;;;;5078942;28;45423;-67
2022/04/03 02:57:36;;;;;;;;;6.67;6.67;;;;;;;;5078932;28;45177;-67
2022/04/03 03:00:02;;;;;;;;;6.33;3.67;;;;;;;;5078844;28;45469;-67
2022/04/03 03:02:28;;;;;;;;;6.00;6.00;;;;;;;;5078908;28;46755;-67
2022/04/03 03:04:53;;;;;;;;;10.00;9.33;;;;;;;;5078341;28;45394;-67
2022/04/03 03:07:21;;;;;;;;;7.33;5.67;;;;;;;;5078943;28;45322;-67
2022/04/03 03:09:46;;;;;;;;;6.00;3.67;;;;;;;;5078893;28;45401;-68
2022/04/03 03:12:11;;;;;;;;;5.67;5.67;;;;;;;;5078501;28;46501;-68
2022/04/03 03:14:36;;;;;;;;;6.00;5.67;;;;;;;;5078281;28;45335;-68
2022/04/03 03:17:04;;;;;;;;;10.33;7.00;;;;;;;;5078720;28;45319;-68
2022/04/03 03:19:29;;;;;;;;;5.33;5.00;;;;;;;;5078828;28;45419;-68
2022/04/03 03:21:54;;;;;;;;;7.33;6.00;;;;;;;;5078653;28;45328;-68
2022/04/03 03:24:19;;;;;;;;;5.33;5.33;;;;;;;;5078314;28;45432;-68
2022/04/03 03:26:45;;;;;;;;;9.00;8.33;;;;;;;;5078718;28;45276;-68
2022/04/03 03:29:10;;;;;;;;;7.67;7.00;;;;;;;;5078278;28;45400;-67
2022/04/03 03:31:35;;;;;;;;;3.67;2.00;;;;;;;;5078508;28;45488;-67
2022/04/03 03:34:00;;;;;;;;;8.67;6.00;;;;;;;;5078257;28;45399;-67
2022/04/03 03:36:26;;;;;;;;;7.67;6.00;;;;;;;;5078475;28;45314;-67
2022/04/03 03:38:51;;;;;;;;;16.00;14.00;;;;;;;;5078631;28;46017;-67
2022/04/03 03:41:16;;;;;;;;;7.00;6.67;;;;;;;;5078257;28;45443;-67
2022/04/03 03:43:42;;;;;;;;;5.00;5.00;;;;;;;;5086138;27;45665;-67
2022/04/03 03:46:08;;;;;;;;;13.00;7.67;;;;;;;;5098457;27;45331;-67
2022/04/03 03:48:34;;;;;;;;;10.00;7.00;;;;;;;;5078328;27;45697;-67
2022/04/03 03:50:59;;;;;;;;;8.33;8.33;;;;;;;;5077938;28;46437;-67
2022/04/03 03:53:24;;;;;;;;;10.00;8.33;;;;;;;;5077717;28;45336;-67
2022/04/03 03:55:50;;;;;;;;;7.00;6.67;;;;;;;;5078226;28;45387;-67
2022/04/03 03:58:15;;;;;;;;;14.33;9.67;;;;;;;;5077539;28;45323;-68
2022/04/03 04:00:40;;;;;;;;;9.67;9.67;;;;;;;;5077668;28;46602;-68
2022/04/03 04:03:06;;;;;;;;;12.67;10.00;;;;;;;;5077674;28;45357;-68
2022/04/03 04:05:31;;;;;;;;;11.00;8.67;;;;;;;;5077867;28;45449;-68
2022/04/03 04:07:56;;;;;;;;;8.00;7.00;;;;;;;;5078050;28;45289;-68
2022/04/03 04:10:21;;;;;;;;;12.33;11.00;;;;;;;;5077249;28;45539;-70
2022/04/03 04:12:47;;;;;;;;;10.67;8.33;;;;;;;;5077507;28;45230;-68
2022/04/03 04:15:13;;;;;;;;;7.00;6.67;;;;;;;;5077828;28;45469;-68
2022/04/03 04:17:39;;;;;;;;;7.67;7.67;;;;;;;;5078116;28;45277;-67
2022/04/03 04:20:05;;;;;;;;;7.00;5.33;;;;;;;;5077939;28;45331;-67
2022/04/03 04:22:31;;;;;;;;;11.67;7.00;;;;;;;;5077386;28;46335;-67
2022/04/03 04:24:56;;;;;;;;;11.00;7.33;;;;;;;;5077720;28;45287;-69
2022/04/03 04:27:21;;;;;;;;;14.67;8.00;;;;;;;;5077736;28;45334;-70
2022/04/03 04:29:46;;;;;;;;;9.33;9.33;;;;;;;;5077479;28;45431;-69
2022/04/03 04:32:13;;;;;;;;;26.67;15.33;;;;;;;;5075576;28;45612;-68
2022/04/03 04:34:38;;;;;;;;;10.33;10.33;;;;;;;;5062003;28;45500;-69
2022/04/03 04:37:04;;;;;;;;;10.33;8.33;;;;;;;;5045896;28;45349;-69
2022/04/03 04:39:29;;;;;;;;;18.67;14.00;;;;;;;;5056913;28;46403;-69
2022/04/03 04:41:54;;;;;;;;;8.00;6.00;;;;;;;;5057180;28;45489;-68
2022/04/03 04:44:19;;;;;;;;;8.67;8.67;;;;;;;;5063398;28;45289;-68
2022/04/03 04:46:44;;;;;;;;;12.33;9.33;;;;;;;;5077377;28;45315;-68
2022/04/03 04:49:10;;;;;;;;;10.00;7.00;;;;;;;;5076998;28;45524;-68
2022/04/03 04:51:35;;;;;;;;;8.67;6.67;;;;;;;;5077163;28;45726;-68
2022/04/03 04:54:00;;;;;;;;;9.33;6.67;;;;;;;;5077344;28;45234;-68
2022/04/03 04:56:26;;;;;;;;;7.33;6.33;;;;;;;;5077505;28;45452;-69
2022/04/03 04:58:52;;;;;;;;;11.67;10.67;;;;;;;;5076785;28;46368;-68
2022/04/03 05:01:17;;;;;;;;;10.33;10.33;;;;;;;;5077217;28;45313;-68
2022/04/03 05:03:42;;;;;;;;;7.00;7.00;;;;;;;;5077004;28;45323;-68
2022/04/03 05:06:09;;;;;;;;;8.33;7.00;;;;;;;;5077108;28;45580;-68
2022/04/03 05:08:35;;;;;;;;;7.00;7.00;;;;;;;;5077026;28;46590;-68
2022/04/03 05:11:00;;;;;;;;;7.67;7.67;;;;;;;;5076965;28;45335;-68
2022/04/03 05:13:25;;;;;;;;;7.67;7.67;;;;;;;;5080533;28;45199;-67
2022/04/03 05:15:51;;;;;;;;;27.67;24.67;;;;;;;;5080532;28;45330;-67
2022/04/03 05:18:17;;;;;;;;;8.00;6.33;;;;;;;;5079842;28;46464;-67
2022/04/03 05:20:43;;;;;;;;;15.00;12.00;;;;;;;;5080472;28;45772;-69
2022/04/03 05:23:08;;;;;;;;;46.00;40.00;;;;;;;;5080442;28;45305;-67
2022/04/03 05:25:34;;;;;;;;;13.67;13.67;;;;;;;;5080172;28;45614;-67
2022/04/03 05:27:59;;;;;;;;;15.33;7.67;;;;;;;;5080333;28;45247;-69
2022/04/03 05:30:25;;;;;;;;;12.00;8.00;;;;;;;;5080003;28;45371;-68
2022/04/03 05:32:50;;;;;;;;;10.67;7.33;;;;;;;;5080516;28;45283;-70
2022/04/03 05:35:15;;;;;;;;;7.33;6.33;;;;;;;;5080444;28;45792;-69
2022/04/03 05:37:41;;;;;;;;;7.33;5.33;;;;;;;;5079833;28;45404;-69
2022/04/03 05:40:07;;;;;;;;;9.33;7.00;;;;;;;;5080021;28;45343;-67
2022/04/03 05:42:33;;;;;;;;;7.67;6.00;;;;;;;;5080370;28;45228;-68
2022/04/03 05:44:58;;;;;;;;;11.00;10.00;;;;;;;;5079814;28;45503;-70
2022/04/03 05:47:24;;;;;;;;;4.67;4.67;;;;;;;;5079754;28;45952;-68
2022/04/03 05:49:49;;;;;;;;;6.00;6.00;;;;;;;;5079954;28;45320;-68
2022/04/03 05:52:14;;;;;;;;;7.00;5.00;;;;;;;;5079679;28;45314;-69
2022/04/03 05:54:39;;;;;;;;;10.33;9.00;;;;;;;;5079572;28;45400;-69
2022/04/03 05:57:05;;;;;;;;;6.00;6.00;;;;;;;;5079706;28;45533;-68
2022/04/03 05:59:30;;;;;;;;;8.33;4.67;;;;;;;;5079622;28;45503;-68
2022/04/03 06:01:56;;;;;;;;;9.33;7.67;;;;;;;;5092290;27;45674;-68
2022/04/03 06:04:21;;;;;;;;;11.00;8.00;;;;;;;;5100440;27;45226;-68
2022/04/03 06:06:46;;;;;;;;;7.33;7.00;;;;;;;;5100146;27;45362;-68
2022/04/03 06:09:11;;;;;;;;;10.67;9.00;;;;;;;;5099911;27;45547;-67
2022/04/03 06:11:36;;;;;;;;;7.00;7.00;;;;;;;;5100116;27;45349;-67
2022/04/03 06:14:02;;;;;;;;;14.67;13.00;;;;;;;;5100397;27;45265;-69
2022/04/03 06:16:27;;;;;;;;;1.00;0.00;;;;;;;;5086937;27;45330;-68
2022/04/03 06:18:53;;;;;;;;;11.67;6.67;;;;;;;;5079571;28;45384;-68
2022/04/03 06:21:18;;;;;;;;;9.00;9.00;;;;;;;;5079274;28;45371;-68
2022/04/03 06:23:43;;;;;;;;;10.33;10.33;;;;;;;;5079807;28;45280;-68
2022/04/03 06:26:09;;;;;;;;;10.67;8.67;;;;;;;;5079497;28;45402;-68
2022/04/03 06:28:34;;;;;;;;;11.67;9.00;;;;;;;;5079313;28;45253;-69
2022/04/03 06:31:00;;;;;;;;;7.00;7.00;;;;;;;;5079365;28;45346;-69
2022/04/03 06:33:25;;;;;;;;;10.33;7.00;;;;;;;;5079641;28;45447;-69
2022/04/03 06:35:50;;;;;;;;;9.00;6.67;;;;;;;;5078689;28;45458;-70
2022/04/03 06:38:16;;;;;;;;;9.00;8.00;;;;;;;;5079158;28;45493;-70
2022/04/03 06:40:51;;;;;;;;;7.00;7.00;;;;;;;;5079184;28;45369;-68
2022/04/03 06:43:20;;;;;;;;;6.00;6.00;;;;;;;;5078979;28;45386;-70
2022/04/03 06:45:46;;;;;;;;;7.00;7.00;;;;;;;;5078898;28;46135;-70
2022/04/03 06:48:11;;;;;;;;;7.67;7.67;;;;;;;;5078836;28;45775;-69
2022/04/03 06:50:36;;;;;;;;;6.67;6.67;;;;;;;;5079256;28;45433;-69
2022/04/03 06:53:03;;;;;;;;;5.33;5.33;;;;;;;;5079403;28;45289;-69
2022/04/03 06:55:29;;;;;;;;;6.00;6.00;;;;;;;;5078849;28;45567;-69
2022/04/03 06:57:54;;;;;;;;;9.00;7.67;;;;;;;;5092452;27;45413;-67
2022/04/03 07:00:19;;;;;;;;;8.67;7.00;;;;;;;;5099112;27;45333;-69
2022/04/03 07:02:44;;;;;;;;;10.00;7.00;;;;;;;;5099440;27;45307;-68
2022/04/03 07:05:09;;;;;;;;;15.00;10.00;;;;;;;;5099321;27;47064;-68
2022/04/03 07:07:35;;;;;;;;;11.67;7.67;;;;;;;;5099090;27;45312;-69
2022/04/03 07:10:00;;;;;;;;;11.00;9.00;;;;;;;;5099346;27;45359;-69
2022/04/03 07:12:25;;;;;;;;;14.00;14.00;;;;;;;;5079201;27;45395;-69
2022/04/03 07:14:51;;;;;;;;;10.33;9.33;;;;;;;;5078637;28;45705;-71
2022/04/03 07:17:16;;;;;;;;;8.00;7.00;;;;;;;;5078297;28;45357;-67
2022/04/03 07:19:41;;;;;;;;;8.00;7.67;;;;;;;;5078566;28;45299;-67
2022/04/03 07:22:07;;;;;;;;;6.33;6.33;;;;;;;;5079019;28;45464;-68
2022/04/03 07:24:32;;;;;;;;;9.67;8.00;;;;;;;;5078387;28;45722;-71
2022/04/03 07:26:57;;;;;;;;;6.00;4.33;;;;;;;;5077806;28;45332;-71
2022/04/03 07:29:23;;;;;;;;;7.67;6.00;;;;;;;;5078377;28;45295;-70
2022/04/03 07:31:48;;;;;;;;;7.33;4.67;;;;;;;;5078051;28;45524;-68
2022/04/03 07:34:14;;;;;;;;;9.33;4.00;;;;;;;;5077826;28;46684;-68
2022/04/03 07:36:39;;;;;;;;;5.33;5.33;;;;;;;;5078374;28;45419;-69
2022/04/03 07:39:05;;;;;;;;;5.00;5.00;;;;;;;;5077892;28;45265;-68
2022/04/03 07:41:30;;;;;;;;;4.00;4.00;;;;;;;;5078125;28;45451;-70
2022/04/03 07:43:55;;;;;;;;;6.00;5.67;;;;;;;;5077860;28;47581;-73
2022/04/03 07:46:21;;;;;;;;;6.67;6.67;;;;;;;;5077461;28;45206;-71
2022/04/03 07:48:46;;;;;;;;;5.00;5.00;;;;;;;;5077875;28;45442;-71
2022/04/03 07:51:11;;;;;;;;;6.00;6.00;;;;;;;;5078335;28;45244;-70
2022/04/03 07:53:37;;;;;;;;;9.33;8.33;;;;;;;;5077825;28;47131;-70
2022/04/03 07:56:05;;;;;;;;;6.67;5.00;;;;;;;;5077779;28;45998;-70
2022/04/03 07:58:30;;;;;;;;;9.00;8.33;;;;;;;;5078051;28;45371;-70
2022/04/03 08:00:55;;;;;;;;;5.67;5.67;;;;;;;;5077245;28;45512;-70
2022/04/03 08:03:20;;;;;;;;;4.00;4.00;;;;;;;;5077845;28;45294;-71
2022/04/03 08:05:45;;;;;;;;;4.00;3.00;;;;;;;;5077703;28;45369;-71
2022/04/03 08:08:11;;;;;;;;;7.67;4.67;;;;;;;;5077689;28;45380;-72
2022/04/03 08:10:36;;;;;;;;;7.00;5.00;;;;;;;;5059669;28;45489;-72
2022/04/03 08:13:01;;;;;;;;;4.67;4.67;;;;;;;;5077592;28;45281;-71
2022/04/03 08:15:28;;;;;;;;;7.33;7.33;;;;;;;;5077345;28;45384;-72
2022/04/03 08:17:54;;;;;;;;;4.67;4.67;;;;;;;;5075630;28;45332;-72
2022/04/03 08:20:19;;;;;;;;;4.00;4.00;;;;;;;;5077757;28;45559;-70
2022/04/03 08:22:45;;;;;;;;;5.00;5.00;;;;;;;;5076818;28;47203;-69
2022/04/03 08:25:12;;;;;;;;;6.67;6.00;;;;;;;;5077166;28;45340;-70
2022/04/03 08:27:44;;;;;;;;;5.33;4.00;;;;;;;;5077264;28;45438;-69
2022/04/03 08:30:10;;;;;;;;;5.00;5.00;;;;;;;;5077661;28;45324;-69
2022/04/03 08:32:36;;;;;;;;;5.00;4.33;;;;;;;;5076845;28;46709;-69
2022/04/03 08:35:01;;;;;;;;;5.00;5.00;;;;;;;;5077008;28;45296;-69
2022/04/03 08:37:28;;;;;;;;;5.00;5.00;;;;;;;;5076508;28;45598;-69
2022/04/03 08:39:53;;;;;;;;;10.00;10.00;;;;;;;;5077137;28;45375;-69
2022/04/03 08:42:18;;;;;;;;;5.00;5.00;;;;;;;;5076846;28;46069;-69
2022/04/03 08:44:43;;;;;;;;;6.00;4.33;;;;;;;;5076897;28;45618;-69
2022/04/03 08:47:11;;;;;;;;;4.67;4.33;;;;;;;;5079111;28;45266;-69
2022/04/03 08:49:39;;;;;;;;;7.00;5.00;;;;;;;;5080776;28;45435;-69
2022/04/03 08:52:04;;;;;;;;;5.00;5.00;;;;;;;;5079824;28;45525;-69
2022/04/03 08:54:31;;;;;;;;;6.67;5.00;;;;;;;;5080720;28;45565;-69
2022/04/03 08:56:57;;;;;;;;;5.33;5.33;;;;;;;;5082917;27;45499;-69
2022/04/03 08:59:22;;;;;;;;;29.00;24.67;;;;;;;;5101334;27;45492;-69
2022/04/03 09:01:49;;;;;;;;;5.00;5.00;;;;;;;;5090157;27;46369;-69
2022/04/03 09:04:17;;;;;;;;;4.33;4.33;;;;;;;;5080397;28;45320;-69
2022/04/03 09:06:55;;;;;;;;;3.67;3.00;;;;;;;;5080187;28;45320;-70
2022/04/03 09:09:21;;;;;;;;;2.50;2.00;;;;;;;;5080590;28;45456;-70
2022/04/03 09:12:04;;;;;;;;;3.67;2.67;;;;;;;;5079951;28;47368;-70
2022/04/03 09:14:30;;;;;;;;;2.00;0.00;;;;;;;;5080398;28;45462;-70
2022/04/03 09:16:55;;;;;;;;;2.33;2.33;;;;;;;;5080272;28;45382;-69
2022/04/03 09:19:30;;;;;;;;;3.67;3.33;;;;;;;;5080561;28;45426;-69
2022/04/03 09:21:55;;;;;;;;;1.67;1.67;;;;;;;;5083332;27;45600;-69
2022/04/03 09:24:20;;;;;;;;;2.00;2.00;;;;;;;;5079332;28;45380;-68
2022/04/03 09:26:56;;;;;;;;;2.00;2.00;;;;;;;;5080253;28;45486;-68
2022/04/03 09:29:21;;;;;;;;;1.25;1.25;;;;;;;;5080252;28;45820;-70
2022/04/03 09:31:46;;;;;;;;;3.67;2.00;;;;;;;;5079692;28;45662;-70
2022/04/03 09:34:16;;;;;;;;;4.67;2.67;;;;;;;;5079876;28;45234;-70
2022/04/03 09:36:41;;;;;;;;;3.00;1.50;;;;;;;;5079921;28;45496;-70
2022/04/03 09:39:09;;;;;;;;;2.00;2.00;;;;;;;;5091558;27;45448;-70
2022/04/03 09:41:54;;;;;;;;;3.33;2.33;;;;;;;;5079776;28;45634;-70
2022/04/03 09:44:23;;;;;;;;;3.00;3.00;;;;;;;;5079980;28;45293;-69
2022/04/03 09:47:08;;;;;;;;;1.67;1.67;;;;;;;;5079993;28;45513;-70
2022/04/03 09:49:33;;;;;;;;;3.00;3.00;;;;;;;;5080084;28;45472;-69
2022/04/03 09:51:58;;;;;;;;;4.00;2.67;;;;;;;;5060904;28;46922;-69
2022/04/03 09:54:24;;;;;;;;;3.00;3.00;;;;;;;;5079523;28;45386;-69
2022/04/03 09:56:49;;;;;;;;;2.00;2.00;;;;;;;;5079410;28;45469;-69
2022/04/03 09:59:15;;;;;;;;;2.33;2.33;;;;;;;;5079532;28;45415;-69
2022/04/03 10:01:41;;;;;;;;;2.67;2.67;;;;;;;;5078769;28;47580;-69
2022/04/03 10:04:06;;;;;;;;;2.33;2.33;;;;;;;;5078643;28;45524;-69
2022/04/03 10:06:32;;;;;;;;;7.00;4.67;;;;;;;;5078518;28;45780;-69
2022/04/03 10:08:58;;;;;;;;;3.00;3.00;;;;;;;;5081576;27;45391;-69
2022/04/03 10:11:23;;;;;;;;;3.67;3.67;;;;;;;;5092555;27;46974;-70
2022/04/03 10:13:49;;;;;;;;;6.67;5.33;;;;;;;;5098845;27;45391;-69
2022/04/03 10:16:15;;;;;;;;;15.00;11.33;;;;;;;;5099500;27;45400;-68
2022/04/03 10:18:41;;;;;;;;;5.67;5.00;;;;;;;;5099637;27;45367;-68
2022/04/03 10:21:08;;;;;;;;;3.67;3.00;;;;;;;;5098948;27;46709;-69
2022/04/03 10:23:34;;;;;;;;;8.00;5.33;;;;;;;;5099081;27;45520;-68
2022/04/03 10:26:02;;;;;;;;;6.00;5.00;;;;;;;;5081937;27;45430;-68
2022/04/03 10:28:28;;;;;;;;;6.33;5.33;;;;;;;;5078034;28;45400;-69
2022/04/03 10:31:00;;;;;;;;;8.33;6.00;;;;;;;;5078410;27;46582;-71
2022/04/03 10:33:25;;;;;;;;;17.67;17.67;;;;;;;;5078614;28;45416;-71
2022/04/03 10:36:09;;;;;;;;;4.67;4.67;;;;;;;;5078907;27;45401;-70
2022/04/03 10:38:35;;;;;;;;;78.50;55.75;;;;;;;;5078753;27;45504;-72
2022/04/03 10:41:00;;;;;;;;;4.00;4.00;;;;;;;;5077474;27;46569;-69
2022/04/03 10:43:28;;;;;;;;;6.33;5.00;;;;;;;;5079355;28;45231;-70
2022/04/03 10:45:53;;;;;;;;;4.33;4.33;;;;;;;;5079093;28;45283;-70
2022/04/03 10:48:21;;;;;;;;;4.00;4.00;;;;;;;;5079500;28;45204;-70
2022/04/03 10:51:06;;;;;;;;;5.00;5.00;;;;;;;;5078414;28;46413;-72
2022/04/03 10:53:34;;;;;;;;;5.67;3.67;;;;;;;;5078905;28;45486;-69
2022/04/03 10:56:02;;;;;;;;;7.00;4.00;;;;;;;;5079093;28;45370;-69
2022/04/03 10:58:44;;;;;;;;;0.00;0.00;;;;;;;;5079408;28;45319;-69
2022/04/03 11:01:11;;;;;;;;;4.00;4.00;;;;;;;;5077636;28;45540;-70
2022/04/03 11:03:37;;;;;;;;;4.67;4.67;;;;;;;;5078395;28;45421;-70
2022/04/03 11:06:22;;;;;;;;;4.67;4.67;;;;;;;;5078584;28;45327;-69
2022/04/03 11:09:06;;;;;;;;;7.67;7.00;;;;;;;;5077777;28;45553;-69
2022/04/03 11:11:34;;;;;;;;;3.67;3.67;;;;;;;;5078195;28;45724;-69
2022/04/03 11:13:59;;;;;;;;;5.00;5.00;;;;;;;;5078872;28;45458;-69
2022/04/03 11:16:26;;;;;;;;;8.00;7.00;;;;;;;;5079140;28;45343;-72
2022/04/03 11:18:51;;;;;;;;;6.33;6.00;;;;;;;;5078904;28;45203;-72
2022/04/03 11:21:23;;;;;;;;;7.33;6.67;;;;;;;;5078694;28;45329;-72
2022/04/03 11:23:48;;;;;;;;;5.67;5.00;;;;;;;;5060418;28;45485;-71
2022/04/03 11:26:15;;;;;;;;;8.00;7.33;;;;;;;;5078654;28;45472;-71
2022/04/03 11:28:42;;;;;;;;;7.67;6.00;;;;;;;;5078372;28;45437;-71
2022/04/03 11:31:07;;;;;;;;;7.00;7.00;;;;;;;;5089943;27;47153;-72
2022/04/03 11:33:33;;;;;;;;;7.00;7.00;;;;;;;;5086601;27;45221;-72
2022/04/03 11:36:02;;;;;;;;;6.00;5.00;;;;;;;;5078840;28;45847;-73
2022/04/03 11:38:38;;;;;;;;;3.00;3.00;;;;;;;;5078616;28;45384;-72
2022/04/03 11:41:04;;;;;;;;;6.33;6.33;;;;;;;;5077558;28;46055;-72
2022/04/03 11:43:30;;;;;;;;;4.00;4.00;;;;;;;;5078181;28;45332;-72
2022/04/03 11:45:56;;;;;;;;;5.00;5.00;;;;;;;;5078384;28;45519;-73
2022/04/03 11:48:23;;;;;;;;;4.00;4.00;;;;;;;;5078090;28;45437;-72
2022/04/03 11:50:49;;;;;;;;;6.00;6.00;;;;;;;;5077975;28;47461;-72
2022/04/03 11:53:15;;;;;;;;;5.67;4.00;;;;;;;;5077654;28;45525;-72
2022/04/03 11:55:41;;;;;;;;;4.33;3.33;;;;;;;;5078496;28;45397;-72
2022/04/03 11:58:06;;;;;;;;;3.00;3.00;;;;;;;;5077862;28;45308;-72
2022/04/03 12:00:33;;;;;;;;;3.25;3.25;;;;;;;;5077554;27;46688;-72
2022/04/03 12:03:03;;;;;;;;;5.00;5.00;;;;;;;;5093468;27;45406;-72
2022/04/03 12:05:28;;;;;;;;;3.33;3.33;;;;;;;;5081442;27;45374;-72
2022/04/03 12:07:53;;;;;;;;;4.00;2.33;;;;;;;;5077847;28;45398;-72
2022/04/03 12:10:26;;;;;;;;;3.00;3.00;;;;;;;;5077220;28;47012;-72
2022/04/03 12:12:53;;;;;;;;;3.33;3.00;;;;;;;;5080132;27;45451;-71
2022/04/03 12:15:22;;;;;;;;;6.00;4.00;;;;;;;;5077220;28;45654;-74
2022/04/03 12:17:54;;;;;;;;;4.00;4.00;;;;;;;;5084669;27;45433;-73
2022/04/03 12:20:19;;;;;;;;;3.67;3.67;;;;;;;;5080285;27;45450;-73
2022/04/03 12:22:48;;;;;;;;;7.00;4.33;;;;;;;;5076688;28;45423;-73
2022/04/03 12:25:13;;;;;;;;;5.00;4.00;;;;;;;;5077249;28;45175;-73
2022/04/03 12:27:39;;;;;;;;;4.67;3.00;;;;;;;;5077031;27;45236;-72
2022/04/03 12:30:07;;;;;;;;;4.00;4.00;;;;;;;;5082237;27;47551;-73
2022/04/03 12:32:35;;;;;;;;;8.00;4.00;;;;;;;;5097976;27;45441;-73
2022/04/03 12:35:00;;;;;;;;;5.00;5.00;;;;;;;;5081658;27;45858;-73
2022/04/03 12:37:26;;;;;;;;;4.00;4.00;;;;;;;;5077053;28;45709;-73
2022/04/03 12:39:51;;;;;;;;;5.67;4.67;;;;;;;;5077026;28;46251;-72
2022/04/03 12:42:22;;;;;;;;;5.00;5.00;;;;;;;;5077094;28;45400;-72
2022/04/03 12:44:55;;;;;;;;;6.00;6.00;;;;;;;;5077357;28;45302;-73
2022/04/03 12:47:23;;;;;;;;;7.00;6.00;;;;;;;;5077164;28;45338;-72
2022/04/03 12:50:06;;;;;;;;;6.00;6.00;;;;;;;;5056889;28;46293;-72
2022/04/03 12:52:53;;;;;;;;;7.33;6.00;;;;;;;;5060177;28;45350;-71
2022/04/03 12:55:24;;;;;;;;;8.00;5.00;;;;;;;;5077416;28;45442;-72
2022/04/03 13:00:46;;;;;;;;;7.00;6.67;;;;;;;;5064151;28;45469;-71
2022/04/03 13:03:23;;;;;;;;;15.00;14.67;;;;;;;;5076130;28;45540;-72
2022/04/03 13:05:48;;;;;;;;;5.00;5.00;;;;;;;;5077303;28;45309;-72
2022/04/03 13:08:13;;;;;;;;;3.33;3.33;;;;;;;;5080455;27;45339;-72
2022/04/03 13:10:51;;;;;;;;;3.00;3.00;;;;;;;;5076394;28;46456;-72
2022/04/03 13:13:26;;;;;;;;;3.00;3.00;;;;;;;;5076611;28;45244;-72
2022/04/03 13:15:52;;;;;;;;;1.25;1.25;;;;;;;;5092362;27;45367;-72
2022/04/03 13:18:18;;;;;;;;;6.00;3.33;;;;;;;;5075992;27;45629;-72
2022/04/03 13:20:47;;;;;;;;;4.33;4.33;;;;;;;;5076700;28;46181;-72
2022/04/03 13:23:15;;;;;;;;;3.00;3.00;;;;;;;;5076716;28;45275;-72
2022/04/03 13:25:41;;;;;;;;;4.00;2.75;;;;;;;;5077100;28;45237;-74
2022/04/03 13:28:06;;;;;;;;;6.00;4.00;;;;;;;;5077106;28;45308;-72
2022/04/03 13:30:34;;;;;;;;;5.67;4.00;;;;;;;;5079833;27;46599;-73
2022/04/03 13:32:59;;;;;;;;;4.67;4.67;;;;;;;;5077860;28;45463;-74
2022/04/03 13:35:25;;;;;;;;;5.33;5.33;;;;;;;;5061843;28;45510;-74
2022/04/03 13:37:51;;;;;;;;;4.00;4.00;;;;;;;;5079846;28;45383;-74
2022/04/03 13:40:16;;;;;;;;;4.33;3.67;;;;;;;;5079849;28;46337;-74
2022/04/03 13:42:41;;;;;;;;;4.33;4.00;;;;;;;;5079769;28;45290;-73
2022/04/03 13:45:07;;;;;;;;;3.00;3.00;;;;;;;;5080551;28;45333;-74
2022/04/03 13:47:32;;;;;;;;;6.00;4.33;;;;;;;;5080125;27;45561;-72
2022/04/03 13:49:57;;;;;;;;;3.00;2.67;;;;;;;;5078972;28;47106;-74
2022/04/03 13:52:24;;;;;;;;;4.67;3.67;;;;;;;;5079510;28;45462;-74
2022/04/03 13:54:49;;;;;;;;;5.00;5.00;;;;;;;;5080223;28;45382;-73
2022/04/03 13:57:14;;;;;;;;;3.67;3.67;;;;;;;;5079671;28;45295;-74
2022/04/03 13:59:39;;;;;;;;;6.33;5.00;;;;;;;;5079589;28;45489;-74
2022/04/03 14:02:05;;;;;;;;;4.00;3.00;;;;;;;;5079249;28;45506;-74
2022/04/03 14:04:30;;;;;;;;;4.00;4.00;;;;;;;;5079470;28;45448;-74
2022/04/03 14:06:55;;;;;;;;;5.67;5.33;;;;;;;;5080106;28;45419;-75
2022/04/03 14:09:20;;;;;;;;;3.00;3.00;;;;;;;;5079585;28;45403;-74
2022/04/03 14:11:46;;;;;;;;;3.33;3.33;;;;;;;;5079822;28;45292;-74
2022/04/03 14:14:11;;;;;;;;;4.67;4.67;;;;;;;;5079107;28;45539;-73
2022/04/03 14:16:38;;;;;;;;;2.00;2.00;;;;;;;;5082691;27;45312;-72
2022/04/03 14:19:03;;;;;;;;;4.00;4.00;;;;;;;;5097525;27;46240;-73
2022/04/03 14:21:31;;;;;;;;;3.00;3.00;;;;;;;;5078501;28;45532;-72
2022/04/03 14:24:00;;;;;;;;;3.00;3.00;;;;;;;;5060471;28;45401;-73
2022/04/03 14:26:25;;;;;;;;;5.67;5.33;;;;;;;;5078953;28;45494;-71
2022/04/03 14:28:51;;;;;;;;;4.00;2.67;;;;;;;;5079042;28;45512;-72
2022/04/03 14:31:16;;;;;;;;;6.00;3.00;;;;;;;;5088993;27;45393;-72
2022/04/03 14:33:42;;;;;;;;;3.33;3.00;;;;;;;;5078940;28;45434;-72
2022/04/03 14:36:08;;;;;;;;;3.67;3.67;;;;;;;;5078406;28;45404;-72